createdAt,value
2019-04-14T00:02:38.285Z,92.25
2019-04-14T00:05:12.542Z,92.00
2019-04-14T00:07:42.844Z,90.90
2019-04-14T00:10:13.927Z,89.92
2019-04-14T00:12:44.860Z,88.25
2019-04-14T00:15:38.624Z,91.12
2019-04-14T00:18:23.017Z,85.85
2019-04-14T00:21:11.117Z,86.12
2019-04-14T00:23:59.322Z,84.10
2019-04-14T00:26:48.773Z,85.32
2019-04-14T00:29:37.173Z,85.72
2019-04-14T00:32:26.872Z,83.78
2019-04-14T00:35:25.576Z,82.80
2019-04-14T00:38:19.822Z,83.85
2019-04-14T00:41:40.293Z,82.47
2019-04-14T00:44:38.686Z,81.05
2019-04-14T00:47:31.168Z,83.60
2019-04-14T00:50:19.572Z,82.37
2019-04-14T00:53:07.766Z,78.78
2019-04-14T00:55:55.873Z,81.45
2019-04-14T00:58:43.675Z,75.87
2019-04-14T01:01:31.428Z,77.47
2019-04-14T01:04:19.309Z,75.83
2019-04-14T01:07:08.658Z,77.42
2019-04-14T01:09:57.543Z,75.47
2019-04-14T01:12:45.689Z,75.00
2019-04-14T01:15:15.999Z,75.75
2019-04-14T01:17:46.303Z,73.62
2019-04-14T01:20:16.970Z,76.55
2019-04-14T01:22:47.253Z,73.25
2019-04-14T01:25:17.594Z,72.85
2019-04-14T01:27:47.905Z,71.37
2019-04-14T01:30:18.137Z,72.87
2019-04-14T01:32:48.440Z,72.22
2019-04-14T01:35:20.313Z,68.70
2019-04-14T01:37:50.786Z,72.05
2019-04-14T01:40:21.176Z,68.70
2019-04-14T01:42:52.671Z,68.50
2019-04-14T01:45:23.242Z,66.17
2019-04-14T01:47:53.604Z,65.30
2019-04-14T01:50:32.683Z,67.97
2019-04-14T01:53:12.307Z,69.82
2019-04-14T01:56:05.667Z,64.75
2019-04-14T01:58:42.537Z,65.55
2019-04-14T02:01:30.770Z,66.55
2019-04-14T02:04:04.886Z,65.52
2019-04-14T02:06:37.672Z,64.75
2019-04-14T02:09:09.714Z,62.90
2019-04-14T02:11:40.007Z,62.98
2019-04-14T02:14:10.449Z,62.35
2019-04-14T02:16:49.415Z,62.15
2019-04-14T02:19:15.341Z,59.27
2019-04-14T02:21:45.789Z,60.63
2019-04-14T02:24:16.072Z,60.55
2019-04-14T02:26:46.359Z,61.77
2019-04-14T02:29:16.871Z,63.98
2019-04-14T02:32:17.571Z,59.23
2019-04-14T02:34:50.762Z,57.50
2019-04-14T02:39:56.044Z,58.90
2019-04-14T02:44:57.152Z,56.23
2019-04-14T02:47:45.229Z,59.18
2019-04-14T02:49:56.162Z,57.73
2019-04-14T02:52:35.397Z,56.75
2019-04-14T02:55:04.246Z,56.75
2019-04-14T02:57:38.313Z,56.95
2019-04-14T03:00:07.881Z,55.43
2019-04-14T03:02:38.939Z,55.40
2019-04-14T03:05:13.297Z,54.58
2019-04-14T03:07:46.786Z,54.40
2019-04-14T03:10:22.414Z,52.80
2019-04-14T03:12:46.541Z,54.30
2019-04-14T03:15:17.078Z,53.73
2019-04-14T03:18:35.603Z,52.83
2019-04-14T03:21:30.576Z,51.00
2019-04-14T03:24:27.312Z,51.02
2019-04-14T03:27:22.393Z,51.53
2019-04-14T03:30:26.184Z,50.28
2019-04-14T03:32:58.084Z,49.58
2019-04-14T03:37:48.587Z,49.18
2019-04-14T03:39:57.241Z,48.15
2019-04-14T03:43:05.904Z,50.10
2019-04-14T03:45:42.833Z,47.25
2019-04-14T03:50:50.204Z,48.65
2019-04-14T03:53:18.857Z,48.00
2019-04-14T03:56:00.183Z,48.30
2019-04-14T03:58:27.127Z,45.45
2019-04-14T04:00:57.668Z,45.43
2019-04-14T04:03:28.957Z,45.25
2019-04-14T04:06:00.824Z,45.38
2019-04-14T04:08:33.349Z,45.70
2019-04-14T04:11:04.035Z,46.10
2019-04-14T04:13:34.580Z,44.48
2019-04-14T04:16:18.046Z,44.40
2019-04-14T04:18:57.871Z,44.90
2019-04-14T04:21:44.463Z,42.58
2019-04-14T04:24:35.011Z,42.78
2019-04-14T04:27:14.135Z,43.68
2019-04-14T04:29:52.676Z,42.35
2019-04-14T04:32:34.767Z,43.08
2019-04-14T04:35:15.607Z,42.30
2019-04-14T04:38:16.684Z,42.03
2019-04-14T04:40:46.968Z,41.85
2019-04-14T04:43:17.249Z,41.48
2019-04-14T04:45:47.562Z,40.90
2019-04-14T04:48:17.832Z,41.20
2019-04-14T04:50:48.146Z,40.48
2019-04-14T04:53:18.446Z,40.58
2019-04-14T04:55:48.722Z,40.38
2019-04-14T04:58:19.500Z,39.33
2019-04-14T05:00:52.530Z,41.40
2019-04-14T05:03:23.233Z,39.55
2019-04-14T05:06:50.611Z,38.70
2019-04-14T05:09:38.959Z,39.48
2019-04-14T05:12:41.335Z,37.90
2019-04-14T05:15:33.494Z,37.90
2019-04-14T05:18:04.943Z,37.83
2019-04-14T05:20:37.787Z,38.35
2019-04-14T05:23:08.204Z,40.83
2019-04-14T05:25:38.619Z,36.05
2019-04-14T05:28:11.162Z,36.00
2019-04-14T05:30:41.631Z,35.55
2019-04-14T05:33:12.142Z,34.45
2019-04-14T05:35:42.477Z,35.23
2019-04-14T05:38:12.744Z,35.28
2019-04-14T05:40:44.980Z,33.60
2019-04-14T05:43:27.981Z,33.70
2019-04-14T05:45:50.037Z,35.52
2019-04-14T05:48:21.431Z,35.08
2019-04-14T05:50:51.709Z,33.95
2019-04-14T05:53:22.371Z,33.85
2019-04-14T05:55:52.666Z,29.60
2019-04-14T05:58:23.246Z,32.50
2019-04-14T06:00:53.608Z,32.08
2019-04-14T06:03:27.688Z,31.35
2019-04-14T06:05:58.300Z,31.73
2019-04-14T06:08:28.572Z,34.15
2019-04-14T06:10:58.798Z,36.15
2019-04-14T06:13:29.016Z,36.05
2019-04-14T06:15:59.573Z,36.77
2019-04-14T06:18:30.999Z,35.25
2019-04-14T06:21:01.233Z,37.08
2019-04-14T06:23:31.531Z,34.65
2019-04-14T06:26:01.848Z,35.40
2019-04-14T06:28:32.510Z,38.10
2019-04-14T06:31:18.998Z,37.50
2019-04-14T06:34:09.209Z,36.98
2019-04-14T06:37:10.593Z,39.20
2019-04-14T06:39:43.787Z,23.65
2019-04-14T06:42:14.028Z,30.57
2019-04-14T06:44:44.688Z,29.72
2019-04-14T06:47:14.929Z,33.98
2019-04-14T06:49:49.169Z,34.92
2019-04-14T06:52:17.418Z,35.38
2019-04-14T06:54:47.758Z,36.05
2019-04-14T06:57:18.001Z,38.40
2019-04-14T06:59:48.341Z,55.63
2019-04-14T07:02:18.593Z,61.53
2019-04-14T07:04:48.958Z,43.35
2019-04-14T07:07:19.302Z,50.30
2019-04-14T07:09:49.611Z,50.85
2019-04-14T07:12:19.887Z,54.95
2019-04-14T07:14:51.200Z,43.85
2019-04-14T07:17:21.515Z,44.18
2019-04-14T07:20:01.345Z,42.27
2019-04-14T07:22:24.137Z,38.08
2019-04-14T07:24:54.598Z,40.80
2019-04-14T07:27:24.925Z,37.83
2019-04-14T07:30:10.894Z,42.33
2019-04-14T07:32:56.278Z,37.05
2019-04-14T07:35:51.647Z,36.70
2019-04-14T07:38:30.619Z,37.53
2019-04-14T07:41:31.867Z,35.68
2019-04-14T07:44:09.457Z,31.95
2019-04-14T07:46:58.609Z,33.10
2019-04-14T07:49:56.797Z,31.95
2019-04-14T07:52:35.880Z,30.80
2019-04-14T07:55:25.117Z,28.50
2019-04-14T07:58:15.028Z,27.17
2019-04-14T08:01:01.019Z,25.80
2019-04-14T08:03:50.198Z,25.10
2019-04-14T08:06:20.476Z,25.02
2019-04-14T08:08:50.743Z,24.75
2019-04-14T08:11:21.017Z,24.40
2019-04-14T08:13:51.288Z,23.15
2019-04-14T08:16:21.553Z,33.00
2019-04-14T08:18:51.793Z,35.33
2019-04-14T08:21:22.048Z,30.32
2019-04-14T08:23:52.268Z,27.22
2019-04-14T08:26:22.588Z,25.35
2019-04-14T08:28:52.918Z,24.18
2019-04-14T08:31:23.402Z,24.92
2019-04-14T08:33:53.676Z,24.50
2019-04-14T08:36:24.418Z,24.35
2019-04-14T08:38:54.696Z,23.07
2019-04-14T08:41:25.849Z,25.70
2019-04-14T08:44:20.018Z,40.43
2019-04-14T08:47:07.762Z,80.55
2019-04-14T08:50:01.131Z,68.47
2019-04-14T08:52:38.846Z,55.25
2019-04-14T08:55:26.697Z,50.95
2019-04-14T08:58:18.732Z,47.83
2019-04-14T09:01:00.706Z,46.20
2019-04-14T09:03:42.231Z,44.30
2019-04-14T09:06:20.019Z,40.12
2019-04-14T09:08:54.658Z,40.38
2019-04-14T09:11:32.029Z,39.40
2019-04-14T09:14:02.379Z,38.83
2019-04-14T09:16:32.673Z,36.90
2019-04-14T09:19:07.908Z,36.85
2019-04-14T09:21:34.956Z,36.75
2019-04-14T09:24:05.249Z,37.23
2019-04-14T09:26:35.553Z,35.90
2019-04-14T09:29:05.846Z,35.03
2019-04-14T09:31:34.886Z,34.35
2019-04-14T09:34:03.556Z,34.43
2019-04-14T09:36:32.284Z,35.13
2019-04-14T09:39:02.738Z,36.88
2019-04-14T09:41:33.575Z,34.88
2019-04-14T09:44:03.893Z,35.05
2019-04-14T09:46:34.159Z,35.45
2019-04-14T09:49:04.476Z,33.67
2019-04-14T09:51:34.749Z,33.53
2019-04-14T09:54:05.323Z,32.83
2019-04-14T09:56:35.781Z,33.18
2019-04-14T09:59:05.857Z,35.35
2019-04-14T10:01:37.205Z,36.45
2019-04-14T10:04:07.470Z,38.33
2019-04-14T10:06:39.547Z,38.90
2019-04-14T10:09:11.364Z,44.23
2019-04-14T10:11:48.547Z,41.95
2019-04-14T10:14:13.845Z,44.42
2019-04-14T10:16:44.129Z,49.50
2019-04-14T10:19:14.551Z,57.90
2019-04-14T10:21:44.875Z,66.45
2019-04-14T10:24:15.156Z,57.27
2019-04-14T10:26:45.601Z,61.60
2019-04-14T10:29:16.889Z,62.88
2019-04-14T10:31:47.169Z,62.90
2019-04-14T10:34:17.467Z,59.63
2019-04-14T10:36:47.771Z,58.33
2019-04-14T10:39:18.131Z,56.05
2019-04-14T10:41:48.392Z,52.45
2019-04-14T10:44:18.767Z,54.77
2019-04-14T10:46:49.075Z,53.08
2019-04-14T10:49:19.418Z,53.08
2019-04-14T10:51:49.741Z,52.33
2019-04-14T10:54:20.012Z,49.93
2019-04-14T10:56:50.442Z,51.28
2019-04-14T10:59:20.726Z,46.08
2019-04-14T11:01:51.083Z,45.00
2019-04-14T11:04:21.430Z,43.28
2019-04-14T11:06:57.670Z,39.53
2019-04-14T11:09:27.937Z,42.93
2019-04-14T11:11:58.233Z,40.92
2019-04-14T11:14:28.984Z,42.73
2019-04-14T11:16:59.233Z,41.90
2019-04-14T11:19:29.793Z,39.30
2019-04-14T11:22:00.075Z,38.02
2019-04-14T11:24:32.659Z,38.05
2019-04-14T11:27:04.487Z,36.20
2019-04-14T11:29:34.773Z,33.10
2019-04-14T11:32:32.784Z,37.88
2019-04-14T11:35:20.641Z,47.40
2019-04-14T11:38:12.647Z,60.95
2019-04-14T11:40:54.300Z,63.28
2019-04-14T11:43:24.653Z,66.87
2019-04-14T11:45:58.821Z,69.97
2019-04-14T11:48:29.338Z,68.12
2019-04-14T11:50:59.840Z,67.10
2019-04-14T11:53:30.303Z,67.55
2019-04-14T11:56:00.776Z,67.37
2019-04-14T11:58:31.298Z,65.03
2019-04-14T12:01:22.075Z,67.37
2019-04-14T12:04:13.720Z,65.12
2019-04-14T12:07:03.048Z,64.25
2019-04-14T12:09:46.164Z,62.15
2019-04-14T12:12:17.039Z,65.75
2019-04-14T12:14:48.817Z,63.55
2019-04-14T12:17:18.703Z,61.48
2019-04-14T12:19:49.083Z,64.97
2019-04-14T12:22:20.748Z,64.03
2019-04-14T12:24:51.502Z,61.65
2019-04-14T12:27:23.098Z,64.65
2019-04-14T12:29:54.468Z,63.63
2019-04-14T12:32:26.005Z,64.75
2019-04-14T12:34:56.820Z,64.72
2019-04-14T12:37:27.506Z,64.05
2019-04-14T12:39:57.692Z,60.05
2019-04-14T12:42:56.670Z,63.55
2019-04-14T12:45:57.880Z,62.75
2019-04-14T12:49:07.882Z,66.47
2019-04-14T12:52:00.500Z,69.42
2019-04-14T12:54:31.352Z,77.65
2019-04-14T12:57:02.138Z,79.67
2019-04-14T12:59:34.349Z,85.35
2019-04-14T13:02:17.649Z,86.45
2019-04-14T13:04:48.113Z,68.42
2019-04-14T13:07:19.387Z,57.93
2019-04-14T13:09:51.064Z,57.55
2019-04-14T13:12:21.591Z,60.05
2019-04-14T13:14:52.048Z,61.28
2019-04-14T13:17:22.933Z,61.40
2019-04-14T13:19:54.599Z,59.23
2019-04-14T13:22:33.776Z,59.50
2019-04-14T13:24:57.314Z,59.80
2019-04-14T13:27:28.277Z,59.65
2019-04-14T13:29:59.314Z,56.65
2019-04-14T13:32:35.907Z,58.08
2019-04-14T13:35:03.847Z,65.35
2019-04-14T13:37:34.138Z,63.85
2019-04-14T13:40:09.589Z,61.45
2019-04-14T13:42:41.395Z,64.27
2019-04-14T13:45:11.876Z,64.47
2019-04-14T13:47:42.193Z,66.60
2019-04-14T13:50:12.632Z,68.60
2019-04-14T13:52:46.925Z,69.50
2019-04-14T13:55:15.019Z,70.80
2019-04-14T13:57:45.334Z,68.30
2019-04-14T14:00:18.756Z,67.90
2019-04-14T14:02:49.090Z,70.67
2019-04-14T14:05:19.468Z,68.65
2019-04-14T14:07:49.786Z,70.55
2019-04-14T14:10:19.968Z,70.00
2019-04-14T14:12:58.284Z,72.78
2019-04-14T14:15:57.072Z,71.60
2019-04-14T14:18:34.309Z,71.05
2019-04-14T14:21:32.313Z,68.92
2019-04-14T14:24:30.630Z,70.92
2019-04-14T14:27:01.003Z,69.85
2019-04-14T14:29:31.523Z,71.37
2019-04-14T14:32:02.994Z,73.78
2019-04-14T14:34:33.316Z,70.92
2019-04-14T14:37:03.695Z,69.55
2019-04-14T14:39:34.375Z,71.40
2019-04-14T14:42:04.630Z,73.25
2019-04-14T14:44:42.901Z,70.10
2019-04-14T14:47:19.026Z,71.65
2019-04-14T14:50:20.602Z,70.62
2019-04-14T14:52:50.887Z,69.47
2019-04-14T14:55:21.268Z,71.20
2019-04-14T14:57:51.541Z,70.37
2019-04-14T15:00:28.975Z,71.02
2019-04-14T15:02:59.252Z,68.97
2019-04-14T15:05:29.538Z,68.75
2019-04-14T15:07:59.846Z,68.70
2019-04-14T15:10:30.092Z,66.72
2019-04-14T15:13:00.438Z,68.25
2019-04-14T15:15:31.388Z,65.55
2019-04-14T15:18:01.796Z,70.15
2019-04-14T15:20:32.104Z,67.12
2019-04-14T15:23:07.581Z,68.37
2019-04-14T15:25:37.859Z,65.50
2019-04-14T15:28:11.441Z,66.70
2019-04-14T15:30:41.722Z,65.78
2019-04-14T15:33:12.006Z,66.12
2019-04-14T15:35:42.284Z,66.12
2019-04-14T15:38:14.157Z,65.05
2019-04-14T15:40:44.465Z,62.45
2019-04-14T15:43:14.669Z,65.32
2019-04-14T15:45:44.993Z,66.20
2019-04-14T15:48:15.362Z,64.15
2019-04-14T15:50:46.071Z,64.80
2019-04-14T15:53:16.353Z,61.55
2019-04-14T15:55:46.730Z,62.90
2019-04-14T15:58:54.283Z,60.85
2019-04-14T16:01:42.389Z,60.75
2019-04-14T16:04:40.426Z,61.42
2019-04-14T16:07:24.262Z,58.10
2019-04-14T16:10:20.066Z,58.87
2019-04-14T16:12:58.855Z,59.13
2019-04-14T16:15:44.367Z,58.70
2019-04-14T16:18:36.986Z,56.55
2019-04-14T16:21:07.532Z,58.20
2019-04-14T16:23:49.735Z,62.17
2019-04-14T16:26:38.712Z,66.60
2019-04-14T16:29:15.164Z,68.15
2019-04-14T16:32:19.455Z,75.03
2019-04-14T16:35:01.686Z,77.65
2019-04-14T16:37:33.439Z,79.58
2019-04-14T16:40:03.839Z,80.45
2019-04-14T16:42:36.212Z,81.92
2019-04-14T16:45:07.243Z,82.25
2019-04-14T16:47:39.758Z,82.65
2019-04-14T16:50:10.677Z,83.33
2019-04-14T16:53:02.083Z,85.35
2019-04-14T16:55:54.891Z,85.20
2019-04-14T16:58:48.388Z,85.35
2019-04-14T17:01:31.353Z,85.03
2019-04-14T17:04:04.413Z,85.28
2019-04-14T17:06:36.124Z,81.82
2019-04-14T17:09:08.461Z,81.32
2019-04-14T17:11:39.384Z,85.17
2019-04-14T17:14:17.785Z,80.67
2019-04-14T17:17:22.229Z,81.78
2019-04-14T17:20:04.506Z,79.42
2019-04-14T17:23:10.542Z,78.50
2019-04-14T17:25:57.584Z,76.33
2019-04-14T17:28:45.730Z,78.67
2019-04-14T17:31:21.459Z,73.67
2019-04-14T17:34:01.944Z,75.00
2019-04-14T17:36:43.124Z,71.12
2019-04-14T17:39:32.095Z,70.62
2019-04-14T17:42:08.828Z,71.42
2019-04-14T17:44:51.067Z,69.97
2019-04-14T17:50:44.498Z,67.92
2019-04-14T17:53:37.637Z,66.28
2019-04-14T17:56:43.423Z,67.17
2019-04-14T17:59:18.705Z,65.17
2019-04-14T18:02:01.874Z,64.15
2019-04-14T18:04:58.965Z,65.20
2019-04-14T18:07:41.981Z,65.03
2019-04-14T18:10:32.925Z,64.30
2019-04-14T18:13:14.533Z,65.37
2019-04-14T18:15:57.986Z,58.73
2019-04-14T18:18:39.416Z,60.23
2019-04-14T18:21:11.689Z,58.05
2019-04-14T18:23:43.598Z,58.63
2019-04-14T18:26:14.554Z,57.03
2019-04-14T18:29:13.715Z,55.83
2019-04-14T18:32:10.247Z,55.73
2019-04-14T18:35:05.228Z,54.80
2019-04-14T18:37:52.867Z,54.58
2019-04-14T18:40:27.959Z,52.48
2019-04-14T18:43:26.691Z,50.33
2019-04-14T18:46:18.989Z,48.28
2019-04-14T18:49:08.531Z,47.43
2019-04-14T18:51:46.741Z,45.55
2019-04-14T18:54:39.581Z,46.65
2019-04-14T18:57:21.521Z,44.63
2019-04-14T19:00:10.978Z,45.80
2019-04-14T19:02:42.329Z,46.65
2019-04-14T19:05:12.828Z,48.25
2019-04-14T19:07:44.893Z,47.45
2019-04-14T19:10:15.710Z,47.43
2019-04-14T19:12:54.559Z,52.23
2019-04-14T19:15:56.022Z,57.40
2019-04-14T19:18:48.504Z,63.85
2019-04-14T19:21:21.437Z,63.90
2019-04-14T19:23:52.009Z,62.48
2019-04-14T19:26:23.464Z,62.17
2019-04-14T19:28:53.798Z,57.78
2019-04-14T19:31:24.049Z,55.28
2019-04-14T19:33:54.682Z,57.13
2019-04-14T19:36:25.277Z,56.83
2019-04-14T19:38:55.884Z,55.08
2019-04-14T19:41:26.251Z,53.78
2019-04-14T19:43:58.129Z,53.92
2019-04-14T19:46:28.619Z,51.20
2019-04-14T19:48:59.132Z,52.55
2019-04-14T19:51:29.525Z,51.33
2019-04-14T19:53:59.827Z,51.37
2019-04-14T19:56:30.121Z,50.28
2019-04-14T19:59:00.424Z,49.85
2019-04-14T20:01:30.714Z,49.60
2019-04-14T20:04:01.217Z,47.60
2019-04-14T20:06:34.148Z,45.65
2019-04-14T20:09:12.105Z,45.58
2019-04-14T20:11:42.411Z,46.13
2019-04-14T20:14:12.880Z,47.62
2019-04-14T20:16:58.460Z,46.15
2019-04-14T20:19:58.923Z,45.88
2019-04-14T20:22:58.774Z,46.60
2019-04-14T20:25:57.236Z,46.00
2019-04-14T20:28:37.940Z,46.58
2019-04-14T20:31:45.599Z,47.95
2019-04-14T20:34:15.909Z,48.00
2019-04-14T20:36:46.194Z,47.78
2019-04-14T20:39:17.137Z,45.95
2019-04-14T20:41:47.679Z,48.95
2019-04-14T20:44:18.196Z,45.73
2019-04-14T20:46:48.527Z,48.17
2019-04-14T20:49:18.808Z,48.50
2019-04-14T20:51:49.134Z,45.83
2019-04-14T20:54:19.417Z,48.40
2019-04-14T20:56:49.810Z,46.95
2019-04-14T20:59:20.108Z,47.83
2019-04-14T21:02:08.220Z,45.70
2019-04-14T21:04:50.435Z,46.80
2019-04-14T21:07:38.388Z,45.90
2019-04-14T21:10:17.860Z,45.55
2019-04-14T21:13:07.297Z,45.55
2019-04-14T21:15:45.379Z,46.02
2019-04-14T21:18:33.189Z,45.12
2019-04-14T21:21:25.226Z,42.65
2019-04-14T21:24:07.242Z,44.08
2019-04-14T21:26:51.728Z,42.62
2019-04-14T21:29:39.520Z,43.65
2019-04-14T21:32:25.014Z,42.00
2019-04-14T21:35:17.586Z,43.35
2019-04-14T21:37:57.749Z,43.08
2019-04-14T21:40:37.620Z,41.60
2019-04-14T21:43:07.983Z,41.65
2019-04-14T21:45:38.328Z,39.88
2019-04-14T21:48:08.683Z,41.18
2019-04-14T21:50:39.976Z,40.88
2019-04-14T21:53:10.301Z,42.45
2019-04-14T21:55:42.131Z,40.23
2019-04-14T21:58:37.307Z,40.50
2019-04-14T22:01:51.254Z,37.98
2019-04-14T22:04:45.572Z,38.65
2019-04-14T22:07:38.575Z,39.50
2019-04-14T22:10:23.464Z,39.08
2019-04-14T22:12:57.406Z,39.18
2019-04-14T22:15:27.984Z,38.65
2019-04-14T22:17:58.835Z,38.70
2019-04-14T22:20:29.208Z,39.27
2019-04-14T22:23:01.028Z,37.08
2019-04-14T22:25:31.649Z,36.15
2019-04-14T22:28:02.218Z,38.48
2019-04-14T22:30:32.475Z,36.03
2019-04-14T22:33:02.786Z,34.85
2019-04-14T22:35:33.335Z,35.78
2019-04-14T22:38:03.668Z,34.88
2019-04-14T22:40:33.943Z,34.80
2019-04-14T22:43:04.382Z,34.85
2019-04-14T22:45:36.048Z,35.13
2019-04-14T22:48:06.489Z,35.48
2019-04-14T22:50:38.099Z,35.17
2019-04-14T22:53:08.568Z,33.55
2019-04-14T22:55:39.061Z,34.53
2019-04-14T22:58:09.846Z,34.18
2019-04-14T23:01:04.559Z,33.73
2019-04-14T23:03:52.881Z,33.55
2019-04-14T23:06:54.421Z,33.63
2019-04-14T23:09:49.416Z,31.68
2019-04-14T23:12:27.412Z,31.70
2019-04-14T23:15:32.030Z,31.68
2019-04-14T23:18:30.628Z,31.70
2019-04-14T23:21:32.223Z,31.20
2019-04-14T23:24:27.676Z,30.80
2019-04-14T23:26:58.345Z,28.98
2019-04-14T23:29:28.879Z,31.57
2019-04-14T23:31:59.404Z,31.07
2019-04-14T23:34:30.263Z,30.25
2019-04-14T23:37:00.706Z,29.63
2019-04-14T23:39:32.547Z,29.12
2019-04-14T23:42:03.030Z,29.23
2019-04-14T23:44:34.565Z,29.85
2019-04-14T23:47:05.025Z,28.90
2019-04-14T23:49:35.564Z,28.70
2019-04-14T23:52:06.043Z,27.87
2019-04-14T23:54:36.627Z,29.02
2019-04-14T23:57:07.218Z,28.45
2019-04-14T23:59:37.947Z,27.02
